sensor_id;sensor_type;location;lat;lon;timestamp;P1;durP1;ratioP1;P2;durP2;ratioP2
67132;SDS011;54052;53.542;49.408;2023-02-23T00:00:47;12.77;;;7.93;;
67132;SDS011;54052;53.542;49.408;2023-02-23T00:03:13;10.60;;;8.05;;
67132;SDS011;54052;53.542;49.408;2023-02-23T00:05:39;12.25;;;7.53;;
67132;SDS011;54052;53.542;49.408;2023-02-23T00:08:05;10.75;;;7.88;;
67132;SDS011;54052;53.542;49.408;2023-02-23T00:10:32;11.88;;;7.90;;
67132;SDS011;54052;53.542;49.408;2023-02-23T00:12:58;11.77;;;7.38;;
67132;SDS011;54052;53.542;49.408;2023-02-23T00:15:25;9.80;;;8.25;;
67132;SDS011;54052;53.542;49.408;2023-02-23T00:17:53;33.05;;;8.80;;
67132;SDS011;54052;53.542;49.408;2023-02-23T00:20:20;12.15;;;7.97;;
67132;SDS011;54052;53.542;49.408;2023-02-23T00:22:54;20.20;;;8.88;;
67132;SDS011;54052;53.542;49.408;2023-02-23T00:25:22;15.05;;;7.93;;
67132;SDS011;54052;53.542;49.408;2023-02-23T00:27:50;10.82;;;8.27;;
67132;SDS011;54052;53.542;49.408;2023-02-23T00:30:17;14.23;;;8.07;;
67132;SDS011;54052;53.542;49.408;2023-02-23T00:32:44;13.80;;;7.43;;
67132;SDS011;54052;53.542;49.408;2023-02-23T00:35:11;8.65;;;7.47;;
67132;SDS011;54052;53.542;49.408;2023-02-23T00:37:45;11.52;;;7.15;;
67132;SDS011;54052;53.542;49.408;2023-02-23T00:40:13;12.85;;;6.82;;
67132;SDS011;54052;53.542;49.408;2023-02-23T00:42:44;9.73;;;6.90;;
67132;SDS011;54052;53.542;49.408;2023-02-23T00:45:12;10.68;;;7.55;;
67132;SDS011;54052;53.542;49.408;2023-02-23T00:47:40;12.48;;;7.88;;
67132;SDS011;54052;53.542;49.408;2023-02-23T00:50:09;10.00;;;7.32;;
67132;SDS011;54052;53.542;49.408;2023-02-23T00:52:39;15.25;;;7.65;;
67132;SDS011;54052;53.542;49.408;2023-02-23T00:55:11;11.68;;;7.72;;
67132;SDS011;54052;53.542;49.408;2023-02-23T00:57:39;12.40;;;7.28;;
67132;SDS011;54052;53.542;49.408;2023-02-23T01:00:06;11.35;;;7.65;;
67132;SDS011;54052;53.542;49.408;2023-02-23T01:02:48;8.90;;;7.05;;
67132;SDS011;54052;53.542;49.408;2023-02-23T01:05:14;12.30;;;7.18;;
67132;SDS011;54052;53.542;49.408;2023-02-23T01:07:41;10.60;;;6.43;;
67132;SDS011;54052;53.542;49.408;2023-02-23T01:10:10;9.68;;;6.88;;
67132;SDS011;54052;53.542;49.408;2023-02-23T01:12:46;11.77;;;7.57;;
67132;SDS011;54052;53.542;49.408;2023-02-23T01:15:14;10.13;;;7.00;;
67132;SDS011;54052;53.542;49.408;2023-02-23T01:17:41;9.32;;;6.93;;
67132;SDS011;54052;53.542;49.408;2023-02-23T01:20:09;12.70;;;7.88;;
67132;SDS011;54052;53.542;49.408;2023-02-23T01:22:47;10.95;;;7.20;;
67132;SDS011;54052;53.542;49.408;2023-02-23T01:25:16;20.20;;;7.75;;
67132;SDS011;54052;53.542;49.408;2023-02-23T01:27:43;9.43;;;6.30;;
67132;SDS011;54052;53.542;49.408;2023-02-23T01:30:10;17.40;;;7.40;;
67132;SDS011;54052;53.542;49.408;2023-02-23T01:32:38;10.23;;;6.18;;
67132;SDS011;54052;53.542;49.408;2023-02-23T01:35:04;15.43;;;7.43;;
67132;SDS011;54052;53.542;49.408;2023-02-23T01:37:39;12.52;;;6.18;;
67132;SDS011;54052;53.542;49.408;2023-02-23T01:40:14;9.05;;;6.80;;
67132;SDS011;54052;53.542;49.408;2023-02-23T01:45:26;9.80;;;7.13;;
67132;SDS011;54052;53.542;49.408;2023-02-23T01:48:05;11.50;;;7.88;;
67132;SDS011;54052;53.542;49.408;2023-02-23T01:50:41;10.40;;;6.85;;
67132;SDS011;54052;53.542;49.408;2023-02-23T01:53:20;8.38;;;6.13;;
67132;SDS011;54052;53.542;49.408;2023-02-23T01:55:49;10.60;;;6.68;;
67132;SDS011;54052;53.542;49.408;2023-02-23T01:58:19;10.40;;;6.05;;
67132;SDS011;54052;53.542;49.408;2023-02-23T02:00:49;23.50;;;6.47;;
67132;SDS011;54052;53.542;49.408;2023-02-23T02:06:05;10.40;;;5.32;;
67132;SDS011;54052;53.542;49.408;2023-02-23T02:08:34;13.00;;;6.45;;
67132;SDS011;54052;53.542;49.408;2023-02-23T02:11:10;11.75;;;6.10;;
67132;SDS011;54052;53.542;49.408;2023-02-23T02:13:51;31.30;;;6.63;;
67132;SDS011;54052;53.542;49.408;2023-02-23T02:16:23;8.00;;;5.82;;
67132;SDS011;54052;53.542;49.408;2023-02-23T02:22:09;13.30;;;5.95;;
67132;SDS011;54052;53.542;49.408;2023-02-23T02:25:21;35.33;;;8.57;;
67132;SDS011;54052;53.542;49.408;2023-02-23T02:33:35;7.18;;;5.75;;
67132;SDS011;54052;53.542;49.408;2023-02-23T02:39:45;56.75;;;7.75;;
67132;SDS011;54052;53.542;49.408;2023-02-23T02:42:49;9.23;;;6.05;;
67132;SDS011;54052;53.542;49.408;2023-02-23T02:56:40;11.35;;;6.22;;
67132;SDS011;54052;53.542;49.408;2023-02-23T02:59:10;27.25;;;6.78;;
67132;SDS011;54052;53.542;49.408;2023-02-23T03:01:58;8.88;;;6.05;;
67132;SDS011;54052;53.542;49.408;2023-02-23T03:04:43;9.50;;;6.18;;
67132;SDS011;54052;53.542;49.408;2023-02-23T03:07:35;20.40;;;7.18;;
67132;SDS011;54052;53.542;49.408;2023-02-23T03:10:28;20.08;;;6.53;;
67132;SDS011;54052;53.542;49.408;2023-02-23T03:20:11;11.43;;;5.45;;
67132;SDS011;54052;53.542;49.408;2023-02-23T03:22:59;9.93;;;5.72;;
67132;SDS011;54052;53.542;49.408;2023-02-23T03:28:58;7.15;;;5.68;;
67132;SDS011;54052;53.542;49.408;2023-02-23T03:31:45;10.60;;;5.30;;
67132;SDS011;54052;53.542;49.408;2023-02-23T03:34:40;9.57;;;6.78;;
67132;SDS011;54052;53.542;49.408;2023-02-23T03:37:30;15.75;;;5.88;;
67132;SDS011;54052;53.542;49.408;2023-02-23T03:40:26;12.10;;;5.75;;
67132;SDS011;54052;53.542;49.408;2023-02-23T03:43:21;13.60;;;6.28;;
67132;SDS011;54052;53.542;49.408;2023-02-23T03:46:09;11.15;;;5.97;;
67132;SDS011;54052;53.542;49.408;2023-02-23T03:48:58;12.20;;;5.95;;
67132;SDS011;54052;53.542;49.408;2023-02-23T03:51:46;10.85;;;6.55;;
67132;SDS011;54052;53.542;49.408;2023-02-23T03:54:36;24.67;;;6.88;;
67132;SDS011;54052;53.542;49.408;2023-02-23T03:57:25;15.25;;;6.43;;
67132;SDS011;54052;53.542;49.408;2023-02-23T04:00:17;27.60;;;7.05;;
67132;SDS011;54052;53.542;49.408;2023-02-23T04:05:54;10.73;;;5.90;;
67132;SDS011;54052;53.542;49.408;2023-02-23T04:08:39;9.38;;;6.57;;
67132;SDS011;54052;53.542;49.408;2023-02-23T04:14:17;8.38;;;5.28;;
67132;SDS011;54052;53.542;49.408;2023-02-23T04:16:48;16.00;;;6.30;;
67132;SDS011;54052;53.542;49.408;2023-02-23T04:19:14;9.25;;;5.97;;
67132;SDS011;54052;53.542;49.408;2023-02-23T04:21:40;11.63;;;6.50;;
67132;SDS011;54052;53.542;49.408;2023-02-23T04:24:07;9.57;;;6.00;;
67132;SDS011;54052;53.542;49.408;2023-02-23T04:26:33;10.40;;;6.40;;
67132;SDS011;54052;53.542;49.408;2023-02-23T04:28:59;10.27;;;5.95;;
67132;SDS011;54052;53.542;49.408;2023-02-23T04:31:26;17.20;;;7.95;;
67132;SDS011;54052;53.542;49.408;2023-02-23T04:33:52;10.70;;;6.30;;
67132;SDS011;54052;53.542;49.408;2023-02-23T04:36:18;9.52;;;6.45;;
67132;SDS011;54052;53.542;49.408;2023-02-23T04:38:44;13.60;;;7.60;;
67132;SDS011;54052;53.542;49.408;2023-02-23T04:41:10;8.90;;;6.25;;
67132;SDS011;54052;53.542;49.408;2023-02-23T04:43:36;42.15;;;7.70;;
67132;SDS011;54052;53.542;49.408;2023-02-23T04:46:02;9.50;;;6.22;;
67132;SDS011;54052;53.542;49.408;2023-02-23T04:48:28;9.07;;;6.25;;
67132;SDS011;54052;53.542;49.408;2023-02-23T04:50:55;8.63;;;6.78;;
67132;SDS011;54052;53.542;49.408;2023-02-23T04:53:21;19.88;;;7.25;;
67132;SDS011;54052;53.542;49.408;2023-02-23T04:55:48;55.08;;;10.15;;
67132;SDS011;54052;53.542;49.408;2023-02-23T04:58:14;144.35;;;11.48;;
67132;SDS011;54052;53.542;49.408;2023-02-23T05:00:40;87.60;;;9.77;;
67132;SDS011;54052;53.542;49.408;2023-02-23T05:03:07;9.10;;;6.35;;
67132;SDS011;54052;53.542;49.408;2023-02-23T05:05:36;14.15;;;6.82;;
67132;SDS011;54052;53.542;49.408;2023-02-23T05:08:15;21.17;;;6.82;;
67132;SDS011;54052;53.542;49.408;2023-02-23T05:10:41;73.65;;;7.95;;
67132;SDS011;54052;53.542;49.408;2023-02-23T05:13:07;15.13;;;12.73;;
67132;SDS011;54052;53.542;49.408;2023-02-23T05:15:33;29.98;;;11.63;;
67132;SDS011;54052;53.542;49.408;2023-02-23T05:17:59;17.42;;;7.70;;
67132;SDS011;54052;53.542;49.408;2023-02-23T05:20:25;10.23;;;6.05;;
67132;SDS011;54052;53.542;49.408;2023-02-23T05:22:52;9.23;;;6.05;;
67132;SDS011;54052;53.542;49.408;2023-02-23T05:25:18;8.05;;;5.50;;
67132;SDS011;54052;53.542;49.408;2023-02-23T05:27:44;19.52;;;5.85;;
67132;SDS011;54052;53.542;49.408;2023-02-23T05:30:10;60.03;;;7.50;;
67132;SDS011;54052;53.542;49.408;2023-02-23T05:32:36;12.13;;;6.57;;
67132;SDS011;54052;53.542;49.408;2023-02-23T05:35:02;76.60;;;9.82;;
67132;SDS011;54052;53.542;49.408;2023-02-23T05:37:29;11.13;;;6.57;;
67132;SDS011;54052;53.542;49.408;2023-02-23T05:39:55;12.85;;;6.65;;
67132;SDS011;54052;53.542;49.408;2023-02-23T05:42:21;13.23;;;7.25;;
67132;SDS011;54052;53.542;49.408;2023-02-23T05:44:50;31.45;;;7.43;;
67132;SDS011;54052;53.542;49.408;2023-02-23T05:47:16;11.75;;;6.45;;
67132;SDS011;54052;53.542;49.408;2023-02-23T05:49:42;8.50;;;5.90;;
67132;SDS011;54052;53.542;49.408;2023-02-23T05:52:10;10.20;;;6.28;;
67132;SDS011;54052;53.542;49.408;2023-02-23T05:54:36;11.13;;;7.53;;
67132;SDS011;54052;53.542;49.408;2023-02-23T05:57:02;13.27;;;7.13;;
67132;SDS011;54052;53.542;49.408;2023-02-23T05:59:28;17.58;;;6.55;;
67132;SDS011;54052;53.542;49.408;2023-02-23T06:01:54;10.95;;;6.63;;
67132;SDS011;54052;53.542;49.408;2023-02-23T06:04:21;12.27;;;6.10;;
67132;SDS011;54052;53.542;49.408;2023-02-23T06:06:48;14.55;;;6.32;;
67132;SDS011;54052;53.542;49.408;2023-02-23T06:09:14;16.60;;;5.82;;
67132;SDS011;54052;53.542;49.408;2023-02-23T06:11:40;14.80;;;6.70;;
67132;SDS011;54052;53.542;49.408;2023-02-23T06:14:06;11.70;;;5.60;;
67132;SDS011;54052;53.542;49.408;2023-02-23T06:16:32;13.95;;;5.95;;
67132;SDS011;54052;53.542;49.408;2023-02-23T06:18:58;8.30;;;4.97;;
67132;SDS011;54052;53.542;49.408;2023-02-23T06:21:24;10.05;;;6.25;;
67132;SDS011;54052;53.542;49.408;2023-02-23T06:23:50;15.15;;;6.05;;
67132;SDS011;54052;53.542;49.408;2023-02-23T06:26:17;11.63;;;6.18;;
67132;SDS011;54052;53.542;49.408;2023-02-23T06:28:44;13.10;;;5.43;;
67132;SDS011;54052;53.542;49.408;2023-02-23T06:31:11;8.77;;;5.38;;
67132;SDS011;54052;53.542;49.408;2023-02-23T06:33:37;8.38;;;5.43;;
67132;SDS011;54052;53.542;49.408;2023-02-23T06:36:03;13.02;;;5.88;;
67132;SDS011;54052;53.542;49.408;2023-02-23T06:38:29;9.02;;;5.10;;
67132;SDS011;54052;53.542;49.408;2023-02-23T06:40:55;8.70;;;6.03;;
67132;SDS011;54052;53.542;49.408;2023-02-23T06:43:21;12.52;;;6.40;;
67132;SDS011;54052;53.542;49.408;2023-02-23T06:45:47;12.50;;;5.95;;
67132;SDS011;54052;53.542;49.408;2023-02-23T06:48:14;10.75;;;5.28;;
67132;SDS011;54052;53.542;49.408;2023-02-23T06:50:40;8.65;;;5.25;;
67132;SDS011;54052;53.542;49.408;2023-02-23T06:53:06;9.45;;;6.40;;
67132;SDS011;54052;53.542;49.408;2023-02-23T06:55:32;13.70;;;6.68;;
67132;SDS011;54052;53.542;49.408;2023-02-23T06:57:58;12.23;;;6.25;;
67132;SDS011;54052;53.542;49.408;2023-02-23T07:00:25;21.92;;;7.63;;
67132;SDS011;54052;53.542;49.408;2023-02-23T07:02:51;14.68;;;7.28;;
67132;SDS011;54052;53.542;49.408;2023-02-23T07:05:17;12.90;;;6.40;;
67132;SDS011;54052;53.542;49.408;2023-02-23T07:07:43;9.75;;;6.60;;
67132;SDS011;54052;53.542;49.408;2023-02-23T07:10:10;8.38;;;4.13;;
67132;SDS011;54052;53.542;49.408;2023-02-23T07:12:36;5.13;;;2.78;;
67132;SDS011;54052;53.542;49.408;2023-02-23T07:15:03;6.05;;;2.70;;
67132;SDS011;54052;53.542;49.408;2023-02-23T07:17:29;7.05;;;2.42;;
67132;SDS011;54052;53.542;49.408;2023-02-23T07:19:56;4.22;;;2.55;;
67132;SDS011;54052;53.542;49.408;2023-02-23T07:22:22;7.07;;;3.97;;
67132;SDS011;54052;53.542;49.408;2023-02-23T07:24:49;8.15;;;3.40;;
67132;SDS011;54052;53.542;49.408;2023-02-23T07:27:15;5.80;;;3.03;;
67132;SDS011;54052;53.542;49.408;2023-02-23T07:29:41;5.75;;;2.53;;
67132;SDS011;54052;53.542;49.408;2023-02-23T07:32:07;14.48;;;7.93;;
67132;SDS011;54052;53.542;49.408;2023-02-23T07:34:33;16.88;;;8.85;;
67132;SDS011;54052;53.542;49.408;2023-02-23T07:37:00;12.88;;;8.70;;
67132;SDS011;54052;53.542;49.408;2023-02-23T07:39:26;18.65;;;7.93;;
67132;SDS011;54052;53.542;49.408;2023-02-23T07:41:52;12.75;;;7.28;;
67132;SDS011;54052;53.542;49.408;2023-02-23T07:44:18;12.48;;;7.55;;
67132;SDS011;54052;53.542;49.408;2023-02-23T07:46:44;12.10;;;7.80;;
67132;SDS011;54052;53.542;49.408;2023-02-23T07:49:11;11.20;;;7.60;;
67132;SDS011;54052;53.542;49.408;2023-02-23T07:51:37;11.10;;;7.75;;
67132;SDS011;54052;53.542;49.408;2023-02-23T07:54:04;9.63;;;7.05;;
67132;SDS011;54052;53.542;49.408;2023-02-23T07:56:31;11.07;;;7.60;;
67132;SDS011;54052;53.542;49.408;2023-02-23T07:58:57;10.15;;;6.88;;
67132;SDS011;54052;53.542;49.408;2023-02-23T08:01:23;12.93;;;7.32;;
67132;SDS011;54052;53.542;49.408;2023-02-23T08:03:49;5.05;;;2.78;;
67132;SDS011;54052;53.542;49.408;2023-02-23T08:06:16;7.00;;;3.55;;
67132;SDS011;54052;53.542;49.408;2023-02-23T08:08:43;12.82;;;3.10;;
67132;SDS011;54052;53.542;49.408;2023-02-23T08:11:10;7.28;;;3.22;;
67132;SDS011;54052;53.542;49.408;2023-02-23T08:13:36;5.32;;;2.67;;
67132;SDS011;54052;53.542;49.408;2023-02-23T08:16:02;9.38;;;3.15;;
67132;SDS011;54052;53.542;49.408;2023-02-23T08:18:29;6.60;;;3.28;;
67132;SDS011;54052;53.542;49.408;2023-02-23T08:20:59;5.43;;;2.80;;
67132;SDS011;54052;53.542;49.408;2023-02-23T08:23:28;17.02;;;7.88;;
67132;SDS011;54052;53.542;49.408;2023-02-23T08:25:55;13.73;;;6.80;;
67132;SDS011;54052;53.542;49.408;2023-02-23T08:28:22;37.40;;;8.70;;
67132;SDS011;54052;53.542;49.408;2023-02-23T08:30:49;10.40;;;5.97;;
67132;SDS011;54052;53.542;49.408;2023-02-23T08:33:15;11.88;;;6.13;;
67132;SDS011;54052;53.542;49.408;2023-02-23T08:35:44;3.17;;;2.03;;
67132;SDS011;54052;53.542;49.408;2023-02-23T08:38:11;1.95;;;1.42;;
67132;SDS011;54052;53.542;49.408;2023-02-23T08:40:37;6.70;;;3.00;;
67132;SDS011;54052;53.542;49.408;2023-02-23T08:43:07;9.30;;;5.72;;
67132;SDS011;54052;53.542;49.408;2023-02-23T08:45:33;10.48;;;6.60;;
67132;SDS011;54052;53.542;49.408;2023-02-23T08:47:59;10.15;;;6.35;;
67132;SDS011;54052;53.542;49.408;2023-02-23T08:50:25;9.00;;;7.03;;
67132;SDS011;54052;53.542;49.408;2023-02-23T08:52:51;9.57;;;6.30;;
67132;SDS011;54052;53.542;49.408;2023-02-23T08:55:18;16.23;;;6.65;;
67132;SDS011;54052;53.542;49.408;2023-02-23T08:57:46;11.18;;;5.80;;
67132;SDS011;54052;53.542;49.408;2023-02-23T09:00:12;10.23;;;6.25;;
67132;SDS011;54052;53.542;49.408;2023-02-23T09:02:42;7.78;;;6.05;;
67132;SDS011;54052;53.542;49.408;2023-02-23T09:05:09;8.82;;;5.13;;
67132;SDS011;54052;53.542;49.408;2023-02-23T09:07:37;11.75;;;6.53;;
67132;SDS011;54052;53.542;49.408;2023-02-23T09:10:05;9.25;;;7.20;;
67132;SDS011;54052;53.542;49.408;2023-02-23T09:12:31;11.35;;;7.03;;
67132;SDS011;54052;53.542;49.408;2023-02-23T09:14:57;8.60;;;6.15;;
67132;SDS011;54052;53.542;49.408;2023-02-23T09:17:24;6.93;;;5.82;;
67132;SDS011;54052;53.542;49.408;2023-02-23T09:19:50;12.57;;;7.13;;
67132;SDS011;54052;53.542;49.408;2023-02-23T09:22:16;11.15;;;5.07;;
67132;SDS011;54052;53.542;49.408;2023-02-23T09:24:43;4.75;;;2.67;;
67132;SDS011;54052;53.542;49.408;2023-02-23T09:27:09;6.40;;;2.95;;
67132;SDS011;54052;53.542;49.408;2023-02-23T09:29:39;5.45;;;2.78;;
67132;SDS011;54052;53.542;49.408;2023-02-23T09:32:09;4.32;;;2.85;;
67132;SDS011;54052;53.542;49.408;2023-02-23T09:34:36;6.05;;;3.33;;
67132;SDS011;54052;53.542;49.408;2023-02-23T09:37:02;6.25;;;2.45;;
67132;SDS011;54052;53.542;49.408;2023-02-23T09:39:29;7.80;;;3.45;;
67132;SDS011;54052;53.542;49.408;2023-02-23T09:42:01;9.38;;;3.40;;
67132;SDS011;54052;53.542;49.408;2023-02-23T09:49:37;12.98;;;8.77;;
67132;SDS011;54052;53.542;49.408;2023-02-23T09:52:08;13.40;;;9.25;;
67132;SDS011;54052;53.542;49.408;2023-02-23T09:54:56;13.90;;;10.25;;
67132;SDS011;54052;53.542;49.408;2023-02-23T09:57:47;11.18;;;7.57;;
67132;SDS011;54052;53.542;49.408;2023-02-23T10:00:18;10.95;;;7.72;;
67132;SDS011;54052;53.542;49.408;2023-02-23T10:03:09;10.95;;;6.68;;
67132;SDS011;54052;53.542;49.408;2023-02-23T10:05:47;17.23;;;8.88;;
67132;SDS011;54052;53.542;49.408;2023-02-23T10:08:21;28.02;;;10.07;;
67132;SDS011;54052;53.542;49.408;2023-02-23T10:11:04;16.23;;;8.57;;
67132;SDS011;54052;53.542;49.408;2023-02-23T10:13:43;112.57;;;11.60;;
67132;SDS011;54052;53.542;49.408;2023-02-23T10:16:26;13.52;;;7.93;;
67132;SDS011;54052;53.542;49.408;2023-02-23T10:21:55;12.43;;;8.38;;
67132;SDS011;54052;53.542;49.408;2023-02-23T10:24:26;73.93;;;11.15;;
67132;SDS011;54052;53.542;49.408;2023-02-23T10:26:57;49.95;;;9.90;;
67132;SDS011;54052;53.542;49.408;2023-02-23T10:29:31;14.20;;;7.97;;
67132;SDS011;54052;53.542;49.408;2023-02-23T10:31:59;58.35;;;8.73;;
67132;SDS011;54052;53.542;49.408;2023-02-23T10:34:32;33.00;;;7.63;;
67132;SDS011;54052;53.542;49.408;2023-02-23T10:37:00;8.57;;;7.07;;
67132;SDS011;54052;53.542;49.408;2023-02-23T10:39:28;8.95;;;7.07;;
67132;SDS011;54052;53.542;49.408;2023-02-23T10:41:58;13.18;;;8.55;;
67132;SDS011;54052;53.542;49.408;2023-02-23T10:44:27;9.05;;;6.93;;
67132;SDS011;54052;53.542;49.408;2023-02-23T10:46:56;10.45;;;6.95;;
67132;SDS011;54052;53.542;49.408;2023-02-23T10:49:40;7.82;;;6.80;;
67132;SDS011;54052;53.542;49.408;2023-02-23T10:52:10;17.33;;;7.07;;
67132;SDS011;54052;53.542;49.408;2023-02-23T10:54:41;16.05;;;6.68;;
67132;SDS011;54052;53.542;49.408;2023-02-23T10:57:10;8.15;;;7.13;;
67132;SDS011;54052;53.542;49.408;2023-02-23T11:00:17;8.32;;;6.65;;
67132;SDS011;54052;53.542;49.408;2023-02-23T11:02:45;10.40;;;7.15;;
67132;SDS011;54052;53.542;49.408;2023-02-23T11:05:58;10.00;;;7.45;;
67132;SDS011;54052;53.542;49.408;2023-02-23T11:11:02;14.02;;;6.82;;
67132;SDS011;54052;53.542;49.408;2023-02-23T11:18:48;16.27;;;8.07;;
67132;SDS011;54052;53.542;49.408;2023-02-23T11:21:30;8.77;;;6.70;;
67132;SDS011;54052;53.542;49.408;2023-02-23T11:24:00;12.82;;;7.10;;
67132;SDS011;54052;53.542;49.408;2023-02-23T11:26:38;101.63;;;9.25;;
67132;SDS011;54052;53.542;49.408;2023-02-23T11:29:22;14.88;;;6.50;;
67132;SDS011;54052;53.542;49.408;2023-02-23T11:32:19;51.55;;;7.88;;
67132;SDS011;54052;53.542;49.408;2023-02-23T11:35:10;17.80;;;7.18;;
67132;SDS011;54052;53.542;49.408;2023-02-23T11:37:46;16.42;;;7.72;;
67132;SDS011;54052;53.542;49.408;2023-02-23T11:40:21;36.58;;;8.35;;
67132;SDS011;54052;53.542;49.408;2023-02-23T11:45:51;37.80;;;7.30;;
67132;SDS011;54052;53.542;49.408;2023-02-23T11:48:22;32.45;;;7.68;;
67132;SDS011;54052;53.542;49.408;2023-02-23T11:50:50;10.95;;;6.95;;
67132;SDS011;54052;53.542;49.408;2023-02-23T11:53:27;38.00;;;7.93;;
67132;SDS011;54052;53.542;49.408;2023-02-23T11:56:00;8.55;;;6.75;;
67132;SDS011;54052;53.542;49.408;2023-02-23T12:01:11;10.38;;;6.57;;
67132;SDS011;54052;53.542;49.408;2023-02-23T12:03:55;9.20;;;6.05;;
67132;SDS011;54052;53.542;49.408;2023-02-23T12:08:56;8.27;;;6.35;;
67132;SDS011;54052;53.542;49.408;2023-02-23T12:11:28;12.02;;;6.45;;
67132;SDS011;54052;53.542;49.408;2023-02-23T12:16:55;9.52;;;6.50;;
67132;SDS011;54052;53.542;49.408;2023-02-23T12:19:36;107.82;;;9.95;;
67132;SDS011;54052;53.542;49.408;2023-02-23T12:22:22;9.38;;;6.00;;
67132;SDS011;54052;53.542;49.408;2023-02-23T12:25:00;54.28;;;7.63;;
67132;SDS011;54052;53.542;49.408;2023-02-23T12:27:37;13.73;;;6.10;;
67132;SDS011;54052;53.542;49.408;2023-02-23T12:35:45;13.43;;;5.80;;
67132;SDS011;54052;53.542;49.408;2023-02-23T12:41:04;8.10;;;6.28;;
67132;SDS011;54052;53.542;49.408;2023-02-23T12:43:38;10.77;;;6.47;;
67132;SDS011;54052;53.542;49.408;2023-02-23T12:46:49;9.65;;;6.05;;
67132;SDS011;54052;53.542;49.408;2023-02-23T12:51:59;12.32;;;5.53;;
67132;SDS011;54052;53.542;49.408;2023-02-23T12:54:33;15.63;;;6.63;;
67132;SDS011;54052;53.542;49.408;2023-02-23T12:57:07;10.30;;;6.28;;
67132;SDS011;54052;53.542;49.408;2023-02-23T13:00:10;10.52;;;6.72;;
67132;SDS011;54052;53.542;49.408;2023-02-23T13:02:52;7.05;;;5.40;;
67132;SDS011;54052;53.542;49.408;2023-02-23T13:05:40;7.35;;;5.40;;
67132;SDS011;54052;53.542;49.408;2023-02-23T13:11:27;13.05;;;6.00;;
67132;SDS011;54052;53.542;49.408;2023-02-23T13:16:49;14.27;;;6.13;;
67132;SDS011;54052;53.542;49.408;2023-02-23T13:22:10;8.77;;;5.60;;
67132;SDS011;54052;53.542;49.408;2023-02-23T13:24:53;35.38;;;7.10;;
67132;SDS011;54052;53.542;49.408;2023-02-23T13:27:33;6.43;;;5.47;;
67132;SDS011;54052;53.542;49.408;2023-02-23T13:30:10;10.18;;;5.57;;
67132;SDS011;54052;53.542;49.408;2023-02-23T13:32:37;6.85;;;5.80;;
67132;SDS011;54052;53.542;49.408;2023-02-23T13:35:04;11.93;;;5.95;;
67132;SDS011;54052;53.542;49.408;2023-02-23T13:54:04;11.35;;;6.15;;
67132;SDS011;54052;53.542;49.408;2023-02-23T13:56:45;10.82;;;6.35;;
67132;SDS011;54052;53.542;49.408;2023-02-23T13:59:22;14.45;;;6.35;;
67132;SDS011;54052;53.542;49.408;2023-02-23T14:01:54;10.05;;;6.60;;
67132;SDS011;54052;53.542;49.408;2023-02-23T14:09:26;14.68;;;7.60;;
67132;SDS011;54052;53.542;49.408;2023-02-23T14:14:44;15.65;;;7.60;;
67132;SDS011;54052;53.542;49.408;2023-02-23T14:19:41;15.23;;;4.75;;
67132;SDS011;54052;53.542;49.408;2023-02-23T14:22:08;13.88;;;5.68;;
67132;SDS011;54052;53.542;49.408;2023-02-23T14:24:40;11.70;;;6.60;;
67132;SDS011;54052;53.542;49.408;2023-02-23T14:40:19;12.40;;;8.30;;
67132;SDS011;54052;53.542;49.408;2023-02-23T14:42:49;14.45;;;10.60;;
67132;SDS011;54052;53.542;49.408;2023-02-23T14:45:27;14.85;;;9.30;;
67132;SDS011;54052;53.542;49.408;2023-02-23T14:48:05;12.90;;;6.80;;
67132;SDS011;54052;53.542;49.408;2023-02-23T14:50:37;8.45;;;5.82;;
67132;SDS011;54052;53.542;49.408;2023-02-23T14:53:05;12.15;;;6.47;;
67132;SDS011;54052;53.542;49.408;2023-02-23T14:55:39;8.45;;;5.50;;
67132;SDS011;54052;53.542;49.408;2023-02-23T14:58:25;11.18;;;5.43;;
67132;SDS011;54052;53.542;49.408;2023-02-23T15:00:57;7.57;;;5.13;;
67132;SDS011;54052;53.542;49.408;2023-02-23T15:03:24;9.35;;;5.07;;
67132;SDS011;54052;53.542;49.408;2023-02-23T15:05:54;11.23;;;6.28;;
67132;SDS011;54052;53.542;49.408;2023-02-23T15:08:22;12.43;;;6.88;;
67132;SDS011;54052;53.542;49.408;2023-02-23T15:10:57;11.60;;;7.25;;
67132;SDS011;54052;53.542;49.408;2023-02-23T15:13:27;10.52;;;7.03;;
67132;SDS011;54052;53.542;49.408;2023-02-23T15:15:55;8.27;;;5.88;;
67132;SDS011;54052;53.542;49.408;2023-02-23T15:18:27;9.35;;;5.93;;
67132;SDS011;54052;53.542;49.408;2023-02-23T15:23:23;8.70;;;6.45;;
67132;SDS011;54052;53.542;49.408;2023-02-23T15:25:49;7.43;;;6.05;;
67132;SDS011;54052;53.542;49.408;2023-02-23T15:30:52;11.90;;;9.15;;
67132;SDS011;54052;53.542;49.408;2023-02-23T15:33:20;9.82;;;8.15;;
67132;SDS011;54052;53.542;49.408;2023-02-23T15:35:54;13.13;;;9.05;;
67132;SDS011;54052;53.542;49.408;2023-02-23T15:38:33;10.02;;;7.57;;
67132;SDS011;54052;53.542;49.408;2023-02-23T15:41:05;14.65;;;5.70;;
67132;SDS011;54052;53.542;49.408;2023-02-23T15:43:33;12.43;;;6.18;;
67132;SDS011;54052;53.542;49.408;2023-02-23T15:46:04;8.13;;;4.63;;
67132;SDS011;54052;53.542;49.408;2023-02-23T15:48:52;6.60;;;4.65;;
67132;SDS011;54052;53.542;49.408;2023-02-23T15:54:20;9.00;;;4.82;;
67132;SDS011;54052;53.542;49.408;2023-02-23T15:56:54;9.45;;;4.30;;
67132;SDS011;54052;53.542;49.408;2023-02-23T15:59:27;5.43;;;4.13;;
67132;SDS011;54052;53.542;49.408;2023-02-23T16:01:57;7.63;;;4.40;;
67132;SDS011;54052;53.542;49.408;2023-02-23T16:04:26;7.57;;;4.32;;
67132;SDS011;54052;53.542;49.408;2023-02-23T16:14:51;7.40;;;5.40;;
67132;SDS011;54052;53.542;49.408;2023-02-23T16:17:39;6.25;;;4.10;;
67132;SDS011;54052;53.542;49.408;2023-02-23T16:22:40;6.55;;;4.43;;
67132;SDS011;54052;53.542;49.408;2023-02-23T16:25:14;6.63;;;4.30;;
67132;SDS011;54052;53.542;49.408;2023-02-23T16:27:43;5.22;;;4.10;;
67132;SDS011;54052;53.542;49.408;2023-02-23T16:33:01;4.88;;;3.47;;
67132;SDS011;54052;53.542;49.408;2023-02-23T16:35:33;4.55;;;3.45;;
67132;SDS011;54052;53.542;49.408;2023-02-23T16:38:10;5.05;;;3.70;;
67132;SDS011;54052;53.542;49.408;2023-02-23T16:43:05;7.88;;;4.03;;
67132;SDS011;54052;53.542;49.408;2023-02-23T16:45:31;6.78;;;3.35;;
67132;SDS011;54052;53.542;49.408;2023-02-23T16:47:57;7.88;;;3.60;;
67132;SDS011;54052;53.542;49.408;2023-02-23T16:50:26;7.55;;;4.30;;
67132;SDS011;54052;53.542;49.408;2023-02-23T16:52:53;5.38;;;4.53;;
67132;SDS011;54052;53.542;49.408;2023-02-23T16:55:23;4.72;;;3.95;;
67132;SDS011;54052;53.542;49.408;2023-02-23T16:57:53;5.95;;;4.68;;
67132;SDS011;54052;53.542;49.408;2023-02-23T17:00:29;6.15;;;5.13;;
67132;SDS011;54052;53.542;49.408;2023-02-23T17:02:57;7.68;;;5.38;;
67132;SDS011;54052;53.542;49.408;2023-02-23T17:05:25;7.78;;;3.67;;
67132;SDS011;54052;53.542;49.408;2023-02-23T17:07:53;6.35;;;3.00;;
67132;SDS011;54052;53.542;49.408;2023-02-23T17:10:25;6.07;;;2.80;;
67132;SDS011;54052;53.542;49.408;2023-02-23T17:13:03;6.10;;;2.75;;
67132;SDS011;54052;53.542;49.408;2023-02-23T17:15:33;5.15;;;2.38;;
67132;SDS011;54052;53.542;49.408;2023-02-23T17:18:01;8.65;;;2.53;;
67132;SDS011;54052;53.542;49.408;2023-02-23T17:20:27;6.45;;;2.63;;
67132;SDS011;54052;53.542;49.408;2023-02-23T17:22:55;5.15;;;2.30;;
67132;SDS011;54052;53.542;49.408;2023-02-23T17:25:23;5.28;;;3.22;;
67132;SDS011;54052;53.542;49.408;2023-02-23T17:27:54;5.10;;;3.30;;